sensor_id;sensor_type;location;lat;lon;timestamp;temperature;humidity
84018;DHT22;74097;51.992;5.890;2023-11-19T00:01:30;16.80;65.90
84018;DHT22;74097;51.992;5.890;2023-11-19T00:03:56;16.80;65.90
84018;DHT22;74097;51.992;5.890;2023-11-19T00:06:21;16.90;65.90
84018;DHT22;74097;51.992;5.890;2023-11-19T00:08:47;16.90;66.00
84018;DHT22;74097;51.992;5.890;2023-11-19T00:11:13;16.90;65.90
84018;DHT22;74097;51.992;5.890;2023-11-19T00:13:38;16.90;66.00
84018;DHT22;74097;51.992;5.890;2023-11-19T00:16:07;16.90;66.00
84018;DHT22;74097;51.992;5.890;2023-11-19T00:18:32;16.90;66.00
84018;DHT22;74097;51.992;5.890;2023-11-19T00:20:58;16.90;66.00
84018;DHT22;74097;51.992;5.890;2023-11-19T00:23:24;16.90;66.00
84018;DHT22;74097;51.992;5.890;2023-11-19T00:25:49;16.90;66.00
84018;DHT22;74097;51.992;5.890;2023-11-19T00:28:15;16.90;66.00
84018;DHT22;74097;51.992;5.890;2023-11-19T00:30:41;16.90;66.00
84018;DHT22;74097;51.992;5.890;2023-11-19T00:33:08;16.90;66.00
84018;DHT22;74097;51.992;5.890;2023-11-19T00:35:34;16.90;66.00
84018;DHT22;74097;51.992;5.890;2023-11-19T00:37:59;16.90;66.00
84018;DHT22;74097;51.992;5.890;2023-11-19T00:40:25;16.90;66.00
84018;DHT22;74097;51.992;5.890;2023-11-19T00:42:51;16.90;66.00
84018;DHT22;74097;51.992;5.890;2023-11-19T00:45:17;16.90;66.00
84018;DHT22;74097;51.992;5.890;2023-11-19T00:47:42;17.00;66.00
84018;DHT22;74097;51.992;5.890;2023-11-19T00:50:10;16.90;66.00
84018;DHT22;74097;51.992;5.890;2023-11-19T00:52:36;17.00;66.10
84018;DHT22;74097;51.992;5.890;2023-11-19T00:55:03;17.00;66.10
84018;DHT22;74097;51.992;5.890;2023-11-19T00:57:29;16.90;66.20
84018;DHT22;74097;51.992;5.890;2023-11-19T00:59:54;17.00;66.30
84018;DHT22;74097;51.992;5.890;2023-11-19T01:02:20;17.00;66.30
84018;DHT22;74097;51.992;5.890;2023-11-19T01:04:46;16.90;66.40
84018;DHT22;74097;51.992;5.890;2023-11-19T01:07:13;17.00;66.40
84018;DHT22;74097;51.992;5.890;2023-11-19T01:09:40;17.00;66.40
84018;DHT22;74097;51.992;5.890;2023-11-19T01:12:07;17.00;66.40
84018;DHT22;74097;51.992;5.890;2023-11-19T01:14:32;17.00;66.40
84018;DHT22;74097;51.992;5.890;2023-11-19T01:16:58;17.00;66.50
84018;DHT22;74097;51.992;5.890;2023-11-19T01:19:24;17.00;66.50
84018;DHT22;74097;51.992;5.890;2023-11-19T01:21:50;17.00;66.50
84018;DHT22;74097;51.992;5.890;2023-11-19T01:24:17;17.00;66.50
84018;DHT22;74097;51.992;5.890;2023-11-19T01:26:43;17.00;66.50
84018;DHT22;74097;51.992;5.890;2023-11-19T01:29:09;17.00;66.50
84018;DHT22;74097;51.992;5.890;2023-11-19T01:31:34;17.00;66.50
84018;DHT22;74097;51.992;5.890;2023-11-19T01:34:00;17.00;66.50
84018;DHT22;74097;51.992;5.890;2023-11-19T01:36:26;17.00;66.50
84018;DHT22;74097;51.992;5.890;2023-11-19T01:38:52;17.00;66.60
84018;DHT22;74097;51.992;5.890;2023-11-19T01:41:19;17.00;66.60
84018;DHT22;74097;51.992;5.890;2023-11-19T01:43:44;17.00;66.60
84018;DHT22;74097;51.992;5.890;2023-11-19T01:46:10;17.00;66.60
84018;DHT22;74097;51.992;5.890;2023-11-19T01:48:37;17.00;66.50
84018;DHT22;74097;51.992;5.890;2023-11-19T01:51:05;17.00;66.60
84018;DHT22;74097;51.992;5.890;2023-11-19T01:53:34;17.10;66.60
84018;DHT22;74097;51.992;5.890;2023-11-19T01:56:00;17.00;66.60
84018;DHT22;74097;51.992;5.890;2023-11-19T01:58:27;17.00;66.60
84018;DHT22;74097;51.992;5.890;2023-11-19T02:00:53;17.10;66.60
84018;DHT22;74097;51.992;5.890;2023-11-19T02:03:20;17.00;66.70
84018;DHT22;74097;51.992;5.890;2023-11-19T02:05:48;17.00;66.70
84018;DHT22;74097;51.992;5.890;2023-11-19T02:08:15;17.10;66.70
84018;DHT22;74097;51.992;5.890;2023-11-19T02:10:41;17.10;66.60
84018;DHT22;74097;51.992;5.890;2023-11-19T02:13:07;17.10;66.60
84018;DHT22;74097;51.992;5.890;2023-11-19T02:15:34;17.10;66.70
84018;DHT22;74097;51.992;5.890;2023-11-19T02:18:18;17.10;66.70
84018;DHT22;74097;51.992;5.890;2023-11-19T02:20:44;17.10;66.70
84018;DHT22;74097;51.992;5.890;2023-11-19T02:23:09;17.00;66.70
84018;DHT22;74097;51.992;5.890;2023-11-19T02:25:35;17.10;66.70
84018;DHT22;74097;51.992;5.890;2023-11-19T02:28:03;17.10;66.70
84018;DHT22;74097;51.992;5.890;2023-11-19T02:30:30;17.10;66.70
84018;DHT22;74097;51.992;5.890;2023-11-19T02:32:56;17.10;66.70
84018;DHT22;74097;51.992;5.890;2023-11-19T02:35:21;17.10;66.70
84018;DHT22;74097;51.992;5.890;2023-11-19T02:37:47;17.10;66.70
84018;DHT22;74097;51.992;5.890;2023-11-19T02:40:13;17.00;66.70
84018;DHT22;74097;51.992;5.890;2023-11-19T02:42:39;17.00;66.60
84018;DHT22;74097;51.992;5.890;2023-11-19T02:45:07;17.10;66.70
84018;DHT22;74097;51.992;5.890;2023-11-19T02:47:34;17.00;66.70
84018;DHT22;74097;51.992;5.890;2023-11-19T02:50:00;17.10;66.70
84018;DHT22;74097;51.992;5.890;2023-11-19T02:52:25;17.10;66.70
84018;DHT22;74097;51.992;5.890;2023-11-19T02:54:51;17.10;66.70
84018;DHT22;74097;51.992;5.890;2023-11-19T02:57:17;17.10;66.70
84018;DHT22;74097;51.992;5.890;2023-11-19T02:59:42;17.10;66.70
84018;DHT22;74097;51.992;5.890;2023-11-19T03:02:10;17.10;66.70
84018;DHT22;74097;51.992;5.890;2023-11-19T03:04:35;17.10;66.70
84018;DHT22;74097;51.992;5.890;2023-11-19T03:07:01;17.10;66.70
84018;DHT22;74097;51.992;5.890;2023-11-19T03:09:27;17.10;66.70
84018;DHT22;74097;51.992;5.890;2023-11-19T03:11:52;17.10;66.60
84018;DHT22;74097;51.992;5.890;2023-11-19T03:14:18;17.10;66.60
84018;DHT22;74097;51.992;5.890;2023-11-19T03:16:45;17.10;66.60
84018;DHT22;74097;51.992;5.890;2023-11-19T03:19:12;17.10;66.60
84018;DHT22;74097;51.992;5.890;2023-11-19T03:21:38;17.10;66.60
84018;DHT22;74097;51.992;5.890;2023-11-19T03:24:04;17.10;66.60
84018;DHT22;74097;51.992;5.890;2023-11-19T03:26:30;17.10;66.60
84018;DHT22;74097;51.992;5.890;2023-11-19T03:28:56;17.10;66.60
84018;DHT22;74097;51.992;5.890;2023-11-19T03:31:21;17.10;66.60
84018;DHT22;74097;51.992;5.890;2023-11-19T03:33:47;17.10;66.60
84018;DHT22;74097;51.992;5.890;2023-11-19T03:36:14;17.10;66.60
84018;DHT22;74097;51.992;5.890;2023-11-19T03:38:40;17.10;66.60
84018;DHT22;74097;51.992;5.890;2023-11-19T03:41:10;17.10;66.60
84018;DHT22;74097;51.992;5.890;2023-11-19T03:43:36;17.10;66.60
84018;DHT22;74097;51.992;5.890;2023-11-19T03:46:01;17.10;66.60
84018;DHT22;74097;51.992;5.890;2023-11-19T03:48:27;17.10;66.60
84018;DHT22;74097;51.992;5.890;2023-11-19T03:50:53;17.10;66.60
84018;DHT22;74097;51.992;5.890;2023-11-19T03:53:20;17.10;66.60
84018;DHT22;74097;51.992;5.890;2023-11-19T03:55:46;17.10;66.60
84018;DHT22;74097;51.992;5.890;2023-11-19T03:58:11;17.10;66.60
84018;DHT22;74097;51.992;5.890;2023-11-19T04:00:37;17.10;66.60
84018;DHT22;74097;51.992;5.890;2023-11-19T04:03:03;17.10;66.60
84018;DHT22;74097;51.992;5.890;2023-11-19T04:05:28;17.10;66.60
84018;DHT22;74097;51.992;5.890;2023-11-19T04:07:54;17.10;66.60
84018;DHT22;74097;51.992;5.890;2023-11-19T04:10:21;17.10;66.60
84018;DHT22;74097;51.992;5.890;2023-11-19T04:12:47;17.10;66.60
84018;DHT22;74097;51.992;5.890;2023-11-19T04:15:14;17.10;66.60
84018;DHT22;74097;51.992;5.890;2023-11-19T04:17:40;17.00;66.60
84018;DHT22;74097;51.992;5.890;2023-11-19T04:20:06;17.10;66.60
84018;DHT22;74097;51.992;5.890;2023-11-19T04:22:32;17.00;66.60
84018;DHT22;74097;51.992;5.890;2023-11-19T04:24:58;17.00;66.60
84018;DHT22;74097;51.992;5.890;2023-11-19T04:27:25;17.10;66.50
84018;DHT22;74097;51.992;5.890;2023-11-19T04:29:51;17.10;66.50
84018;DHT22;74097;51.992;5.890;2023-11-19T04:32:16;17.10;66.50
84018;DHT22;74097;51.992;5.890;2023-11-19T04:34:42;17.10;66.50
84018;DHT22;74097;51.992;5.890;2023-11-19T04:37:08;17.10;66.50
84018;DHT22;74097;51.992;5.890;2023-11-19T04:39:33;17.10;66.50
84018;DHT22;74097;51.992;5.890;2023-11-19T04:41:59;17.00;66.50
84018;DHT22;74097;51.992;5.890;2023-11-19T04:44:26;17.00;66.50
84018;DHT22;74097;51.992;5.890;2023-11-19T04:46:52;17.10;66.50
84018;DHT22;74097;51.992;5.890;2023-11-19T04:49:17;17.10;66.50
84018;DHT22;74097;51.992;5.890;2023-11-19T04:51:44;17.00;66.50
84018;DHT22;74097;51.992;5.890;2023-11-19T04:54:10;17.00;66.50
84018;DHT22;74097;51.992;5.890;2023-11-19T04:56:36;17.00;66.50
84018;DHT22;74097;51.992;5.890;2023-11-19T04:59:02;17.00;66.40
84018;DHT22;74097;51.992;5.890;2023-11-19T05:01:29;17.10;66.40
84018;DHT22;74097;51.992;5.890;2023-11-19T05:03:56;17.00;66.40
84018;DHT22;74097;51.992;5.890;2023-11-19T05:06:22;17.00;66.40
84018;DHT22;74097;51.992;5.890;2023-11-19T05:08:47;17.00;66.40
84018;DHT22;74097;51.992;5.890;2023-11-19T05:11:13;17.00;66.40
84018;DHT22;74097;51.992;5.890;2023-11-19T05:13:39;17.00;66.40
84018;DHT22;74097;51.992;5.890;2023-11-19T05:16:05;17.00;66.40
84018;DHT22;74097;51.992;5.890;2023-11-19T05:18:33;17.00;66.40
84018;DHT22;74097;51.992;5.890;2023-11-19T05:20:58;17.00;66.30
84018;DHT22;74097;51.992;5.890;2023-11-19T05:23:24;17.00;66.40
84018;DHT22;74097;51.992;5.890;2023-11-19T05:25:50;17.00;66.30
84018;DHT22;74097;51.992;5.890;2023-11-19T05:28:15;17.00;66.30
84018;DHT22;74097;51.992;5.890;2023-11-19T05:30:41;17.00;66.30
84018;DHT22;74097;51.992;5.890;2023-11-19T05:33:07;17.00;66.30
84018;DHT22;74097;51.992;5.890;2023-11-19T05:35:34;17.00;66.30
84018;DHT22;74097;51.992;5.890;2023-11-19T05:38:00;17.00;66.30
84018;DHT22;74097;51.992;5.890;2023-11-19T05:40:25;17.00;66.20
84018;DHT22;74097;51.992;5.890;2023-11-19T05:42:51;17.00;66.20
84018;DHT22;74097;51.992;5.890;2023-11-19T05:45:17;17.00;66.20
84018;DHT22;74097;51.992;5.890;2023-11-19T05:47:42;17.00;66.20
84018;DHT22;74097;51.992;5.890;2023-11-19T05:50:09;17.00;66.20
84018;DHT22;74097;51.992;5.890;2023-11-19T05:52:36;17.00;66.20
84018;DHT22;74097;51.992;5.890;2023-11-19T05:55:02;17.00;66.20
84018;DHT22;74097;51.992;5.890;2023-11-19T05:57:28;17.00;66.20
84018;DHT22;74097;51.992;5.890;2023-11-19T05:59:54;17.00;66.20
84018;DHT22;74097;51.992;5.890;2023-11-19T06:02:19;17.00;66.20
84018;DHT22;74097;51.992;5.890;2023-11-19T06:04:45;17.00;66.20
84018;DHT22;74097;51.992;5.890;2023-11-19T06:07:11;17.00;66.10
84018;DHT22;74097;51.992;5.890;2023-11-19T06:09:38;17.00;66.10
84018;DHT22;74097;51.992;5.890;2023-11-19T06:12:04;17.00;66.10
84018;DHT22;74097;51.992;5.890;2023-11-19T06:14:30;17.00;66.10
84018;DHT22;74097;51.992;5.890;2023-11-19T06:16:55;17.00;66.10
84018;DHT22;74097;51.992;5.890;2023-11-19T06:19:21;17.00;66.10
84018;DHT22;74097;51.992;5.890;2023-11-19T06:21:47;17.00;66.10
84018;DHT22;74097;51.992;5.890;2023-11-19T06:24:14;17.00;66.10
84018;DHT22;74097;51.992;5.890;2023-11-19T06:26:41;17.00;66.10
84018;DHT22;74097;51.992;5.890;2023-11-19T06:29:06;17.00;66.00
84018;DHT22;74097;51.992;5.890;2023-11-19T06:31:32;17.00;66.00
84018;DHT22;74097;51.992;5.890;2023-11-19T06:33:58;17.00;66.00
84018;DHT22;74097;51.992;5.890;2023-11-19T06:36:24;17.00;66.00
84018;DHT22;74097;51.992;5.890;2023-11-19T06:38:49;17.00;66.00
84018;DHT22;74097;51.992;5.890;2023-11-19T06:41:15;17.00;66.00
84018;DHT22;74097;51.992;5.890;2023-11-19T06:43:42;17.00;65.90
84018;DHT22;74097;51.992;5.890;2023-11-19T06:46:15;17.00;65.90
84018;DHT22;74097;51.992;5.890;2023-11-19T06:48:40;17.00;65.90
84018;DHT22;74097;51.992;5.890;2023-11-19T06:51:06;17.00;65.90
84018;DHT22;74097;51.992;5.890;2023-11-19T06:53:32;17.00;65.90
84018;DHT22;74097;51.992;5.890;2023-11-19T06:55:57;17.00;65.90
84018;DHT22;74097;51.992;5.890;2023-11-19T06:58:23;17.00;65.90
84018;DHT22;74097;51.992;5.890;2023-11-19T07:00:50;17.00;65.80
84018;DHT22;74097;51.992;5.890;2023-11-19T07:03:16;17.00;65.90
84018;DHT22;74097;51.992;5.890;2023-11-19T07:05:41;17.00;65.80
84018;DHT22;74097;51.992;5.890;2023-11-19T07:08:07;17.00;65.80
84018;DHT22;74097;51.992;5.890;2023-11-19T07:10:33;17.00;65.80
84018;DHT22;74097;51.992;5.890;2023-11-19T07:12:58;17.00;65.80
84018;DHT22;74097;51.992;5.890;2023-11-19T07:15:24;16.90;65.80
84018;DHT22;74097;51.992;5.890;2023-11-19T07:17:51;17.00;65.80
84018;DHT22;74097;51.992;5.890;2023-11-19T07:20:17;17.00;65.80
84018;DHT22;74097;51.992;5.890;2023-11-19T07:22:43;17.00;65.80
84018;DHT22;74097;51.992;5.890;2023-11-19T07:25:09;17.00;65.80
84018;DHT22;74097;51.992;5.890;2023-11-19T07:27:34;17.00;65.80
84018;DHT22;74097;51.992;5.890;2023-11-19T07:30:00;17.00;65.80
84018;DHT22;74097;51.992;5.890;2023-11-19T07:32:26;17.00;65.80
84018;DHT22;74097;51.992;5.890;2023-11-19T07:34:53;17.00;65.70
84018;DHT22;74097;51.992;5.890;2023-11-19T07:37:18;17.00;65.80
84018;DHT22;74097;51.992;5.890;2023-11-19T07:39:45;17.00;65.70
84018;DHT22;74097;51.992;5.890;2023-11-19T07:42:11;17.00;65.80
84018;DHT22;74097;51.992;5.890;2023-11-19T07:44:37;17.10;65.80
84018;DHT22;74097;51.992;5.890;2023-11-19T07:47:02;17.00;65.80
84018;DHT22;74097;51.992;5.890;2023-11-19T07:49:28;17.00;65.80
84018;DHT22;74097;51.992;5.890;2023-11-19T07:51:55;17.00;65.80
84018;DHT22;74097;51.992;5.890;2023-11-19T07:54:21;17.00;65.80
84018;DHT22;74097;51.992;5.890;2023-11-19T07:56:47;17.00;65.90
84018;DHT22;74097;51.992;5.890;2023-11-19T07:59:12;17.00;65.90
84018;DHT22;74097;51.992;5.890;2023-11-19T08:01:38;17.10;65.90
84018;DHT22;74097;51.992;5.890;2023-11-19T08:04:04;17.10;65.90
84018;DHT22;74097;51.992;5.890;2023-11-19T08:06:30;17.10;65.90
84018;DHT22;74097;51.992;5.890;2023-11-19T08:08:57;17.00;65.90
84018;DHT22;74097;51.992;5.890;2023-11-19T08:11:23;17.10;65.80
84018;DHT22;74097;51.992;5.890;2023-11-19T08:13:48;17.10;65.80
84018;DHT22;74097;51.992;5.890;2023-11-19T08:16:14;17.10;65.70
84018;DHT22;74097;51.992;5.890;2023-11-19T08:18:41;17.10;65.70
84018;DHT22;74097;51.992;5.890;2023-11-19T08:21:07;17.20;65.70
84018;DHT22;74097;51.992;5.890;2023-11-19T08:23:32;17.20;65.80
84018;DHT22;74097;51.992;5.890;2023-11-19T08:25:59;17.20;65.80
84018;DHT22;74097;51.992;5.890;2023-11-19T08:28:25;17.20;65.90
84018;DHT22;74097;51.992;5.890;2023-11-19T08:30:51;17.20;65.90
84018;DHT22;74097;51.992;5.890;2023-11-19T08:33:17;17.20;65.90
84018;DHT22;74097;51.992;5.890;2023-11-19T08:35:42;17.20;65.90
84018;DHT22;74097;51.992;5.890;2023-11-19T08:38:08;17.20;65.90
84018;DHT22;74097;51.992;5.890;2023-11-19T08:40:34;17.20;66.00
84018;DHT22;74097;51.992;5.890;2023-11-19T08:43:01;17.20;66.00
84018;DHT22;74097;51.992;5.890;2023-11-19T08:45:26;17.30;66.00
84018;DHT22;74097;51.992;5.890;2023-11-19T08:47:52;17.30;66.00
84018;DHT22;74097;51.992;5.890;2023-11-19T08:50:18;17.30;66.00
84018;DHT22;74097;51.992;5.890;2023-11-19T08:52:43;17.30;66.00
84018;DHT22;74097;51.992;5.890;2023-11-19T08:55:09;17.40;65.90
84018;DHT22;74097;51.992;5.890;2023-11-19T08:57:35;17.40;66.00
84018;DHT22;74097;51.992;5.890;2023-11-19T09:00:02;17.40;66.00
84018;DHT22;74097;51.992;5.890;2023-11-19T09:02:28;17.40;66.10
84018;DHT22;74097;51.992;5.890;2023-11-19T09:04:53;17.50;66.10
84018;DHT22;74097;51.992;5.890;2023-11-19T09:07:19;17.50;66.10
84018;DHT22;74097;51.992;5.890;2023-11-19T09:09:45;17.40;66.10
84018;DHT22;74097;51.992;5.890;2023-11-19T09:12:10;17.50;66.10
84018;DHT22;74097;51.992;5.890;2023-11-19T09:14:36;17.50;66.10
84018;DHT22;74097;51.992;5.890;2023-11-19T09:17:03;17.50;66.10
84018;DHT22;74097;51.992;5.890;2023-11-19T09:19:32;17.50;66.10
84018;DHT22;74097;51.992;5.890;2023-11-19T09:21:58;17.50;66.10
84018;DHT22;74097;51.992;5.890;2023-11-19T09:24:24;17.50;66.10
84018;DHT22;74097;51.992;5.890;2023-11-19T09:26:49;17.50;66.10
84018;DHT22;74097;51.992;5.890;2023-11-19T09:29:15;17.50;66.20
84018;DHT22;74097;51.992;5.890;2023-11-19T09:31:41;17.50;66.20
84018;DHT22;74097;51.992;5.890;2023-11-19T09:34:08;17.50;66.20
84018;DHT22;74097;51.992;5.890;2023-11-19T09:36:33;17.50;66.20
84018;DHT22;74097;51.992;5.890;2023-11-19T09:38:59;17.50;66.20
84018;DHT22;74097;51.992;5.890;2023-11-19T09:41:25;17.50;66.20
84018;DHT22;74097;51.992;5.890;2023-11-19T09:43:51;17.50;66.10
84018;DHT22;74097;51.992;5.890;2023-11-19T09:46:16;17.60;66.10
84018;DHT22;74097;51.992;5.890;2023-11-19T09:48:43;17.60;66.00
84018;DHT22;74097;51.992;5.890;2023-11-19T09:51:11;17.60;66.00
84018;DHT22;74097;51.992;5.890;2023-11-19T09:53:37;17.60;65.90
84018;DHT22;74097;51.992;5.890;2023-11-19T09:56:04;17.60;65.90
84018;DHT22;74097;51.992;5.890;2023-11-19T09:58:30;17.60;65.80
84018;DHT22;74097;51.992;5.890;2023-11-19T10:00:56;17.60;65.80
84018;DHT22;74097;51.992;5.890;2023-11-19T10:03:22;17.60;65.80
84018;DHT22;74097;51.992;5.890;2023-11-19T10:05:48;17.60;65.80
84018;DHT22;74097;51.992;5.890;2023-11-19T10:08:16;17.60;65.70
84018;DHT22;74097;51.992;5.890;2023-11-19T10:10:41;17.60;65.70
84018;DHT22;74097;51.992;5.890;2023-11-19T10:13:07;17.60;65.70
84018;DHT22;74097;51.992;5.890;2023-11-19T10:15:36;17.60;65.60
84018;DHT22;74097;51.992;5.890;2023-11-19T10:18:02;17.60;65.60
84018;DHT22;74097;51.992;5.890;2023-11-19T10:20:28;17.60;65.70
84018;DHT22;74097;51.992;5.890;2023-11-19T10:22:54;17.60;65.70
84018;DHT22;74097;51.992;5.890;2023-11-19T10:25:25;17.60;65.80
84018;DHT22;74097;51.992;5.890;2023-11-19T10:27:51;17.60;66.00
84018;DHT22;74097;51.992;5.890;2023-11-19T10:30:21;17.60;66.00
84018;DHT22;74097;51.992;5.890;2023-11-19T10:33:03;17.60;66.10
84018;DHT22;74097;51.992;5.890;2023-11-19T10:35:28;17.60;66.10
84018;DHT22;74097;51.992;5.890;2023-11-19T10:37:54;17.60;66.10
84018;DHT22;74097;51.992;5.890;2023-11-19T10:40:20;17.60;66.10
84018;DHT22;74097;51.992;5.890;2023-11-19T10:42:47;17.60;66.10
84018;DHT22;74097;51.992;5.890;2023-11-19T10:45:22;17.60;66.10
84018;DHT22;74097;51.992;5.890;2023-11-19T10:47:48;17.60;66.10
84018;DHT22;74097;51.992;5.890;2023-11-19T10:50:14;17.60;66.10
84018;DHT22;74097;51.992;5.890;2023-11-19T10:52:40;17.60;66.00
84018;DHT22;74097;51.992;5.890;2023-11-19T10:55:08;17.70;66.00
84018;DHT22;74097;51.992;5.890;2023-11-19T10:57:37;17.70;65.90
84018;DHT22;74097;51.992;5.890;2023-11-19T11:00:06;17.70;65.90
84018;DHT22;74097;51.992;5.890;2023-11-19T11:02:35;17.70;65.90
84018;DHT22;74097;51.992;5.890;2023-11-19T11:05:07;17.80;65.80
84018;DHT22;74097;51.992;5.890;2023-11-19T11:07:34;17.80;65.70
84018;DHT22;74097;51.992;5.890;2023-11-19T11:10:01;17.80;65.70
84018;DHT22;74097;51.992;5.890;2023-11-19T11:12:27;17.80;65.60
84018;DHT22;74097;51.992;5.890;2023-11-19T11:14:54;17.80;65.60
84018;DHT22;74097;51.992;5.890;2023-11-19T11:17:24;17.80;65.50
84018;DHT22;74097;51.992;5.890;2023-11-19T11:19:51;17.80;65.50
84018;DHT22;74097;51.992;5.890;2023-11-19T11:22:17;17.90;65.40
84018;DHT22;74097;51.992;5.890;2023-11-19T11:25:02;17.90;65.40
84018;DHT22;74097;51.992;5.890;2023-11-19T11:27:54;17.90;65.30
84018;DHT22;74097;51.992;5.890;2023-11-19T11:30:31;17.90;65.30
84018;DHT22;74097;51.992;5.890;2023-11-19T11:33:11;17.90;65.20
84018;DHT22;74097;51.992;5.890;2023-11-19T11:35:52;17.90;65.10
84018;DHT22;74097;51.992;5.890;2023-11-19T11:38:22;17.90;65.10
84018;DHT22;74097;51.992;5.890;2023-11-19T11:41:14;17.90;65.00
84018;DHT22;74097;51.992;5.890;2023-11-19T11:43:44;17.80;65.00
84018;DHT22;74097;51.992;5.890;2023-11-19T11:49:25;17.90;65.00
84018;DHT22;74097;51.992;5.890;2023-11-19T11:52:01;17.80;65.00
84018;DHT22;74097;51.992;5.890;2023-11-19T11:54:28;17.80;65.00
84018;DHT22;74097;51.992;5.890;2023-11-19T11:57:06;17.80;65.00
84018;DHT22;74097;51.992;5.890;2023-11-19T11:59:45;17.80;65.00
84018;DHT22;74097;51.992;5.890;2023-11-19T12:02:11;17.90;65.00
84018;DHT22;74097;51.992;5.890;2023-11-19T12:04:39;17.80;64.90
84018;DHT22;74097;51.992;5.890;2023-11-19T12:07:06;17.80;64.90
84018;DHT22;74097;51.992;5.890;2023-11-19T12:09:32;17.80;64.90
84018;DHT22;74097;51.992;5.890;2023-11-19T12:12:11;17.90;64.90
84018;DHT22;74097;51.992;5.890;2023-11-19T12:15:02;17.90;64.90
84018;DHT22;74097;51.992;5.890;2023-11-19T12:17:41;18.00;64.90
84018;DHT22;74097;51.992;5.890;2023-11-19T12:20:09;18.00;64.80
84018;DHT22;74097;51.992;5.890;2023-11-19T12:22:35;18.00;64.70
84018;DHT22;74097;51.992;5.890;2023-11-19T12:25:02;18.00;64.70
84018;DHT22;74097;51.992;5.890;2023-11-19T12:27:29;18.00;64.70
84018;DHT22;74097;51.992;5.890;2023-11-19T12:29:55;18.00;64.70
84018;DHT22;74097;51.992;5.890;2023-11-19T12:32:21;18.00;64.70
84018;DHT22;74097;51.992;5.890;2023-11-19T12:34:46;18.00;64.70
84018;DHT22;74097;51.992;5.890;2023-11-19T12:37:14;18.00;64.60
84018;DHT22;74097;51.992;5.890;2023-11-19T12:39:39;18.10;64.60
84018;DHT22;74097;51.992;5.890;2023-11-19T12:42:05;18.10;64.70
84018;DHT22;74097;51.992;5.890;2023-11-19T12:44:31;18.10;64.80
84018;DHT22;74097;51.992;5.890;2023-11-19T12:47:04;18.10;64.90
84018;DHT22;74097;51.992;5.890;2023-11-19T12:49:30;18.10;65.00
84018;DHT22;74097;51.992;5.890;2023-11-19T12:51:56;18.10;65.10
84018;DHT22;74097;51.992;5.890;2023-11-19T12:54:33;18.10;65.20
84018;DHT22;74097;51.992;5.890;2023-11-19T12:56:59;18.10;65.20
84018;DHT22;74097;51.992;5.890;2023-11-19T12:59:25;18.10;65.30
84018;DHT22;74097;51.992;5.890;2023-11-19T13:01:54;18.10;65.30
84018;DHT22;74097;51.992;5.890;2023-11-19T13:04:19;18.10;65.30
84018;DHT22;74097;51.992;5.890;2023-11-19T13:06:48;18.10;65.40
84018;DHT22;74097;51.992;5.890;2023-11-19T13:09:23;18.10;65.40
84018;DHT22;74097;51.992;5.890;2023-11-19T13:11:50;18.10;65.50
84018;DHT22;74097;51.992;5.890;2023-11-19T13:14:16;18.10;65.50
84018;DHT22;74097;51.992;5.890;2023-11-19T13:16:42;18.10;65.60
84018;DHT22;74097;51.992;5.890;2023-11-19T13:19:07;18.10;65.60
84018;DHT22;74097;51.992;5.890;2023-11-19T13:21:33;18.10;65.60
84018;DHT22;74097;51.992;5.890;2023-11-19T13:23:59;18.10;65.70
84018;DHT22;74097;51.992;5.890;2023-11-19T13:26:25;18.10;65.70
84018;DHT22;74097;51.992;5.890;2023-11-19T13:28:52;18.10;65.70
84018;DHT22;74097;51.992;5.890;2023-11-19T13:31:17;18.10;65.80
84018;DHT22;74097;51.992;5.890;2023-11-19T13:33:43;18.10;65.90
84018;DHT22;74097;51.992;5.890;2023-11-19T13:36:09;18.10;66.00
84018;DHT22;74097;51.992;5.890;2023-11-19T13:38:35;18.10;66.10
84018;DHT22;74097;51.992;5.890;2023-11-19T13:41:01;18.10;66.10
84018;DHT22;74097;51.992;5.890;2023-11-19T13:43:27;18.10;66.20
84018;DHT22;74097;51.992;5.890;2023-11-19T13:45:54;18.10;66.20
84018;DHT22;74097;51.992;5.890;2023-11-19T13:48:20;18.10;66.30
84018;DHT22;74097;51.992;5.890;2023-11-19T13:50:45;18.10;66.30
84018;DHT22;74097;51.992;5.890;2023-11-19T13:53:11;18.10;66.20
84018;DHT22;74097;51.992;5.890;2023-11-19T13:55:37;18.10;66.30
84018;DHT22;74097;51.992;5.890;2023-11-19T13:58:03;18.10;66.30
84018;DHT22;74097;51.992;5.890;2023-11-19T14:00:29;18.10;66.30
84018;DHT22;74097;51.992;5.890;2023-11-19T14:02:56;18.10;66.30
84018;DHT22;74097;51.992;5.890;2023-11-19T14:05:22;18.10;66.30
84018;DHT22;74097;51.992;5.890;2023-11-19T14:07:47;18.00;66.20
84018;DHT22;74097;51.992;5.890;2023-11-19T14:10:13;18.10;66.30
84018;DHT22;74097;51.992;5.890;2023-11-19T14:12:39;18.00;66.20
84018;DHT22;74097;51.992;5.890;2023-11-19T14:15:05;18.10;66.20
84018;DHT22;74097;51.992;5.890;2023-11-19T14:17:31;18.10;66.10
84018;DHT22;74097;51.992;5.890;2023-11-19T14:19:58;18.10;66.10
84018;DHT22;74097;51.992;5.890;2023-11-19T14:22:24;18.10;66.10
84018;DHT22;74097;51.992;5.890;2023-11-19T14:24:50;18.00;66.10
84018;DHT22;74097;51.992;5.890;2023-11-19T14:27:16;18.10;66.10
84018;DHT22;74097;51.992;5.890;2023-11-19T14:29:41;18.00;66.10
84018;DHT22;74097;51.992;5.890;2023-11-19T14:32:07;18.00;66.10
84018;DHT22;74097;51.992;5.890;2023-11-19T14:34:33;18.10;66.00
84018;DHT22;74097;51.992;5.890;2023-11-19T14:37:00;18.10;66.00
84018;DHT22;74097;51.992;5.890;2023-11-19T14:39:25;18.00;66.00
84018;DHT22;74097;51.992;5.890;2023-11-19T14:41:51;18.10;65.90
84018;DHT22;74097;51.992;5.890;2023-11-19T14:44:17;18.10;65.90
84018;DHT22;74097;51.992;5.890;2023-11-19T14:46:42;18.10;65.90
84018;DHT22;74097;51.992;5.890;2023-11-19T14:49:08;18.10;65.90
84018;DHT22;74097;51.992;5.890;2023-11-19T14:51:35;18.10;65.90
84018;DHT22;74097;51.992;5.890;2023-11-19T14:54:03;18.00;65.90
84018;DHT22;74097;51.992;5.890;2023-11-19T14:56:28;18.10;65.90
84018;DHT22;74097;51.992;5.890;2023-11-19T14:58:54;18.00;65.90
84018;DHT22;74097;51.992;5.890;2023-11-19T15:01:20;18.00;65.90
84018;DHT22;74097;51.992;5.890;2023-11-19T15:03:45;18.00;65.90
84018;DHT22;74097;51.992;5.890;2023-11-19T15:06:11;18.00;65.90
84018;DHT22;74097;51.992;5.890;2023-11-19T15:08:37;18.00;65.90
84018;DHT22;74097;51.992;5.890;2023-11-19T15:11:05;18.00;65.90
84018;DHT22;74097;51.992;5.890;2023-11-19T15:13:31;18.00;65.80
84018;DHT22;74097;51.992;5.890;2023-11-19T15:15:56;18.00;65.90
84018;DHT22;74097;51.992;5.890;2023-11-19T15:18:22;18.00;65.90
84018;DHT22;74097;51.992;5.890;2023-11-19T15:20:48;18.00;65.90
84018;DHT22;74097;51.992;5.890;2023-11-19T15:23:13;18.00;65.90
84018;DHT22;74097;51.992;5.890;2023-11-19T15:25:39;18.00;65.90
84018;DHT22;74097;51.992;5.890;2023-11-19T15:28:06;18.00;65.90
84018;DHT22;74097;51.992;5.890;2023-11-19T15:30:32;18.00;65.90